sensor_id;sensor_type;location;lat;lon;timestamp;pressure;altitude;pressure_sealevel;temperature;humidity
56456;BME280;42354;53.218;6.564;2023-02-23T00:00:16;46991.38;;;-142.92;100.00
56456;BME280;42354;53.218;6.564;2023-02-23T00:02:47;47003.69;;;-142.92;100.00
56456;BME280;42354;53.218;6.564;2023-02-23T00:05:13;47009.84;;;-142.92;100.00
56456;BME280;42354;53.218;6.564;2023-02-23T00:07:41;47018.06;;;-142.92;100.00
56456;BME280;42354;53.218;6.564;2023-02-23T00:10:11;47020.13;;;-142.92;100.00
56456;BME280;42354;53.218;6.564;2023-02-23T00:12:36;46979.06;;;-142.92;100.00
56456;BME280;42354;53.218;6.564;2023-02-23T00:15:02;47020.13;;;-142.92;100.00
56456;BME280;42354;53.218;6.564;2023-02-23T00:17:28;47003.69;;;-142.92;100.00
56456;BME280;42354;53.218;6.564;2023-02-23T00:19:56;46997.53;;;-142.92;100.00
56456;BME280;42354;53.218;6.564;2023-02-23T00:22:23;47001.66;;;-142.92;100.00
56456;BME280;42354;53.218;6.564;2023-02-23T00:24:49;46997.53;;;-142.92;100.00
56456;BME280;42354;53.218;6.564;2023-02-23T00:27:15;47009.84;;;-142.92;100.00
56456;BME280;42354;53.218;6.564;2023-02-23T00:29:45;46987.28;;;-142.92;100.00
56456;BME280;42354;53.218;6.564;2023-02-23T00:32:14;47007.81;;;-142.92;100.00
56456;BME280;42354;53.218;6.564;2023-02-23T00:34:47;47005.75;;;-142.92;100.00
56456;BME280;42354;53.218;6.564;2023-02-23T00:37:17;47011.91;;;-142.92;100.00
56456;BME280;42354;53.218;6.564;2023-02-23T00:39:43;47011.91;;;-142.92;100.00
56456;BME280;42354;53.218;6.564;2023-02-23T00:42:08;47013.97;;;-142.92;100.00
56456;BME280;42354;53.218;6.564;2023-02-23T00:44:35;47013.97;;;-142.92;100.00
56456;BME280;42354;53.218;6.564;2023-02-23T00:47:01;47011.91;;;-142.92;100.00
56456;BME280;42354;53.218;6.564;2023-02-23T00:49:28;47016.00;;;-142.92;100.00
56456;BME280;42354;53.218;6.564;2023-02-23T00:51:53;47003.69;;;-142.92;100.00
56456;BME280;42354;53.218;6.564;2023-02-23T00:54:19;47013.97;;;-142.92;100.00
56456;BME280;42354;53.218;6.564;2023-02-23T00:56:46;47007.81;;;-142.92;100.00
56456;BME280;42354;53.218;6.564;2023-02-23T00:59:12;46987.28;;;-142.92;100.00
56456;BME280;42354;53.218;6.564;2023-02-23T01:01:39;47022.16;;;-142.92;100.00
56456;BME280;42354;53.218;6.564;2023-02-23T01:04:06;47005.75;;;-142.92;100.00
56456;BME280;42354;53.218;6.564;2023-02-23T01:06:33;47016.00;;;-142.92;100.00
56456;BME280;42354;53.218;6.564;2023-02-23T01:08:58;46999.59;;;-142.92;100.00
56456;BME280;42354;53.218;6.564;2023-02-23T01:11:27;47001.66;;;-142.92;100.00
56456;BME280;42354;53.218;6.564;2023-02-23T01:13:56;47016.00;;;-142.92;100.00
56456;BME280;42354;53.218;6.564;2023-02-23T01:16:25;47018.06;;;-142.92;100.00
56456;BME280;42354;53.218;6.564;2023-02-23T01:18:57;47011.91;;;-142.92;100.00
56456;BME280;42354;53.218;6.564;2023-02-23T01:21:27;47013.97;;;-142.92;100.00
56456;BME280;42354;53.218;6.564;2023-02-23T01:23:54;47005.75;;;-142.92;100.00
56456;BME280;42354;53.218;6.564;2023-02-23T01:26:24;47016.00;;;-142.92;100.00
56456;BME280;42354;53.218;6.564;2023-02-23T01:28:57;47013.97;;;-142.92;100.00
56456;BME280;42354;53.218;6.564;2023-02-23T01:31:25;47036.53;;;-142.92;100.00
56456;BME280;42354;53.218;6.564;2023-02-23T01:33:56;47016.00;;;-142.92;100.00
56456;BME280;42354;53.218;6.564;2023-02-23T01:36:22;47011.91;;;-142.92;100.00
56456;BME280;42354;53.218;6.564;2023-02-23T01:38:51;47009.84;;;-142.92;100.00
56456;BME280;42354;53.218;6.564;2023-02-23T01:41:20;47018.06;;;-142.92;100.00
56456;BME280;42354;53.218;6.564;2023-02-23T01:44:04;47007.81;;;-142.92;100.00
56456;BME280;42354;53.218;6.564;2023-02-23T01:46:33;46999.59;;;-142.92;100.00
56456;BME280;42354;53.218;6.564;2023-02-23T01:49:09;46987.28;;;-142.92;100.00
56456;BME280;42354;53.218;6.564;2023-02-23T01:51:40;47001.66;;;-142.92;100.00
56456;BME280;42354;53.218;6.564;2023-02-23T01:54:17;46995.50;;;-142.92;100.00
56456;BME280;42354;53.218;6.564;2023-02-23T01:56:48;46997.53;;;-142.92;100.00
56456;BME280;42354;53.218;6.564;2023-02-23T01:59:24;47009.84;;;-142.92;100.00
56456;BME280;42354;53.218;6.564;2023-02-23T02:01:54;47003.69;;;-142.92;100.00
56456;BME280;42354;53.218;6.564;2023-02-23T02:04:21;47003.69;;;-142.92;100.00
56456;BME280;42354;53.218;6.564;2023-02-23T02:06:49;47007.81;;;-142.92;100.00
56456;BME280;42354;53.218;6.564;2023-02-23T02:09:18;46997.53;;;-142.92;100.00
56456;BME280;42354;53.218;6.564;2023-02-23T02:11:45;47003.69;;;-142.92;100.00
56456;BME280;42354;53.218;6.564;2023-02-23T02:14:24;47003.69;;;-142.92;100.00
56456;BME280;42354;53.218;6.564;2023-02-23T02:22:41;47003.69;;;-142.92;100.00
56456;BME280;42354;53.218;6.564;2023-02-23T02:25:30;46995.50;;;-142.92;100.00
56456;BME280;42354;53.218;6.564;2023-02-23T02:39:51;47009.84;;;-142.92;100.00
56456;BME280;42354;53.218;6.564;2023-02-23T02:42:32;46983.19;;;-142.92;100.00
56456;BME280;42354;53.218;6.564;2023-02-23T02:48:24;46989.34;;;-142.92;100.00
56456;BME280;42354;53.218;6.564;2023-02-23T02:50:57;47005.75;;;-142.92;100.00
56456;BME280;42354;53.218;6.564;2023-02-23T02:56:13;47005.75;;;-142.92;100.00
56456;BME280;42354;53.218;6.564;2023-02-23T02:58:45;46999.59;;;-142.92;100.00
56456;BME280;42354;53.218;6.564;2023-02-23T03:01:14;46999.59;;;-142.92;100.00
56456;BME280;42354;53.218;6.564;2023-02-23T03:04:20;47024.22;;;-142.92;100.00
56456;BME280;42354;53.218;6.564;2023-02-23T03:10:35;47007.81;;;-142.92;100.00
56456;BME280;42354;53.218;6.564;2023-02-23T03:13:46;47016.00;;;-142.92;100.00
56456;BME280;42354;53.218;6.564;2023-02-23T03:17:02;46997.53;;;-142.92;100.00
56456;BME280;42354;53.218;6.564;2023-02-23T03:23:03;47003.69;;;-142.92;100.00
56456;BME280;42354;53.218;6.564;2023-02-23T03:25:57;47007.81;;;-142.92;100.00
56456;BME280;42354;53.218;6.564;2023-02-23T03:28:54;47018.06;;;-142.92;100.00
56456;BME280;42354;53.218;6.564;2023-02-23T03:31:48;46995.50;;;-142.92;100.00
56456;BME280;42354;53.218;6.564;2023-02-23T03:38:09;47016.00;;;-142.92;100.00
56456;BME280;42354;53.218;6.564;2023-02-23T03:40:57;46989.34;;;-142.92;100.00
56456;BME280;42354;53.218;6.564;2023-02-23T03:43:48;47028.31;;;-142.92;100.00
56456;BME280;42354;53.218;6.564;2023-02-23T03:46:37;47003.69;;;-142.92;100.00
56456;BME280;42354;53.218;6.564;2023-02-23T03:49:26;47001.66;;;-142.92;100.00
56456;BME280;42354;53.218;6.564;2023-02-23T03:52:17;47016.00;;;-142.92;100.00
56456;BME280;42354;53.218;6.564;2023-02-23T03:55:12;47028.31;;;-142.92;100.00
56456;BME280;42354;53.218;6.564;2023-02-23T03:57:59;47016.00;;;-142.92;100.00
56456;BME280;42354;53.218;6.564;2023-02-23T04:00:47;47030.38;;;-142.92;100.00
56456;BME280;42354;53.218;6.564;2023-02-23T04:03:35;47011.91;;;-142.92;100.00
56456;BME280;42354;53.218;6.564;2023-02-23T04:06:23;47009.84;;;-142.92;100.00
56456;BME280;42354;53.218;6.564;2023-02-23T04:09:08;47026.28;;;-142.92;100.00
56456;BME280;42354;53.218;6.564;2023-02-23T04:11:57;46995.50;;;-142.92;100.00
56456;BME280;42354;53.218;6.564;2023-02-23T04:15:13;47007.81;;;-142.92;100.00
56456;BME280;42354;53.218;6.564;2023-02-23T04:17:40;47020.13;;;-142.92;100.00
56456;BME280;42354;53.218;6.564;2023-02-23T04:20:09;47011.91;;;-142.92;100.00
56456;BME280;42354;53.218;6.564;2023-02-23T04:22:36;47016.00;;;-142.92;100.00
56456;BME280;42354;53.218;6.564;2023-02-23T04:25:02;47011.91;;;-142.92;100.00
56456;BME280;42354;53.218;6.564;2023-02-23T04:27:27;47020.13;;;-142.92;100.00
56456;BME280;42354;53.218;6.564;2023-02-23T04:29:53;47005.75;;;-142.92;100.00
56456;BME280;42354;53.218;6.564;2023-02-23T04:32:19;47011.91;;;-142.92;100.00
56456;BME280;42354;53.218;6.564;2023-02-23T04:34:47;47011.91;;;-142.92;100.00
56456;BME280;42354;53.218;6.564;2023-02-23T04:37:14;47018.06;;;-142.92;100.00
56456;BME280;42354;53.218;6.564;2023-02-23T04:39:41;47026.28;;;-142.92;100.00
56456;BME280;42354;53.218;6.564;2023-02-23T04:42:12;47032.44;;;-142.92;100.00
56456;BME280;42354;53.218;6.564;2023-02-23T04:44:38;46999.59;;;-142.92;100.00
56456;BME280;42354;53.218;6.564;2023-02-23T04:47:04;46995.50;;;-142.92;100.00
56456;BME280;42354;53.218;6.564;2023-02-23T04:49:29;47016.00;;;-142.92;100.00
56456;BME280;42354;53.218;6.564;2023-02-23T04:51:55;47009.84;;;-142.92;100.00
56456;BME280;42354;53.218;6.564;2023-02-23T04:54:20;47009.84;;;-142.92;100.00
56456;BME280;42354;53.218;6.564;2023-02-23T04:56:46;46999.59;;;-142.92;100.00
56456;BME280;42354;53.218;6.564;2023-02-23T04:59:11;47013.97;;;-142.92;100.00
56456;BME280;42354;53.218;6.564;2023-02-23T05:01:37;46989.34;;;-142.92;100.00
56456;BME280;42354;53.218;6.564;2023-02-23T05:04:02;47003.69;;;-142.92;100.00
56456;BME280;42354;53.218;6.564;2023-02-23T05:06:29;47026.28;;;-142.92;100.00
56456;BME280;42354;53.218;6.564;2023-02-23T05:08:54;46999.59;;;-142.92;100.00
56456;BME280;42354;53.218;6.564;2023-02-23T05:11:20;46989.34;;;-142.92;100.00
56456;BME280;42354;53.218;6.564;2023-02-23T05:13:46;47030.38;;;-142.92;100.00
56456;BME280;42354;53.218;6.564;2023-02-23T05:16:11;47034.47;;;-142.92;100.00
56456;BME280;42354;53.218;6.564;2023-02-23T05:18:37;46999.59;;;-142.92;100.00
56456;BME280;42354;53.218;6.564;2023-02-23T05:21:04;47011.91;;;-142.92;100.00
56456;BME280;42354;53.218;6.564;2023-02-23T05:23:32;47001.66;;;-142.92;100.00
56456;BME280;42354;53.218;6.564;2023-02-23T05:26:08;47018.06;;;-142.92;100.00
56456;BME280;42354;53.218;6.564;2023-02-23T05:28:35;46999.59;;;-142.92;100.00
56456;BME280;42354;53.218;6.564;2023-02-23T05:31:02;47011.91;;;-142.92;100.00
56456;BME280;42354;53.218;6.564;2023-02-23T05:33:28;47007.81;;;-142.92;100.00
56456;BME280;42354;53.218;6.564;2023-02-23T05:35:54;46999.59;;;-142.92;100.00
56456;BME280;42354;53.218;6.564;2023-02-23T05:38:19;47016.00;;;-142.92;100.00
56456;BME280;42354;53.218;6.564;2023-02-23T05:40:45;47016.00;;;-142.92;100.00
56456;BME280;42354;53.218;6.564;2023-02-23T05:43:11;46999.59;;;-142.92;100.00
56456;BME280;42354;53.218;6.564;2023-02-23T05:45:41;46995.50;;;-142.92;100.00
56456;BME280;42354;53.218;6.564;2023-02-23T05:48:07;47020.13;;;-142.92;100.00
56456;BME280;42354;53.218;6.564;2023-02-23T05:50:33;47011.91;;;-142.92;100.00
56456;BME280;42354;53.218;6.564;2023-02-23T05:52:58;47005.75;;;-142.92;100.00
56456;BME280;42354;53.218;6.564;2023-02-23T05:55:28;47020.13;;;-142.92;100.00
56456;BME280;42354;53.218;6.564;2023-02-23T05:57:54;47011.91;;;-142.92;100.00
56456;BME280;42354;53.218;6.564;2023-02-23T06:00:19;46997.53;;;-142.92;100.00
56456;BME280;42354;53.218;6.564;2023-02-23T06:02:46;47007.81;;;-142.92;100.00
56456;BME280;42354;53.218;6.564;2023-02-23T06:05:13;47026.28;;;-142.92;100.00
56456;BME280;42354;53.218;6.564;2023-02-23T06:07:41;47018.06;;;-142.92;100.00
56456;BME280;42354;53.218;6.564;2023-02-23T06:10:07;47013.97;;;-142.92;100.00
56456;BME280;42354;53.218;6.564;2023-02-23T06:12:32;47007.81;;;-142.92;100.00
56456;BME280;42354;53.218;6.564;2023-02-23T06:14:57;47016.00;;;-142.92;100.00
56456;BME280;42354;53.218;6.564;2023-02-23T06:17:23;46999.59;;;-142.92;100.00
56456;BME280;42354;53.218;6.564;2023-02-23T06:19:49;46999.59;;;-142.92;100.00
56456;BME280;42354;53.218;6.564;2023-02-23T06:22:15;47011.91;;;-142.92;100.00
56456;BME280;42354;53.218;6.564;2023-02-23T06:24:42;47020.13;;;-142.92;100.00
56456;BME280;42354;53.218;6.564;2023-02-23T06:27:08;47020.13;;;-142.92;100.00
56456;BME280;42354;53.218;6.564;2023-02-23T06:29:34;47011.91;;;-142.92;100.00
56456;BME280;42354;53.218;6.564;2023-02-23T06:32:01;47007.81;;;-142.92;100.00
56456;BME280;42354;53.218;6.564;2023-02-23T06:34:27;47011.91;;;-142.92;100.00
56456;BME280;42354;53.218;6.564;2023-02-23T06:36:53;47030.38;;;-142.92;100.00
56456;BME280;42354;53.218;6.564;2023-02-23T06:39:18;47009.84;;;-142.92;100.00
56456;BME280;42354;53.218;6.564;2023-02-23T06:41:44;47011.91;;;-142.92;100.00
56456;BME280;42354;53.218;6.564;2023-02-23T06:44:09;47011.91;;;-142.92;100.00
56456;BME280;42354;53.218;6.564;2023-02-23T06:46:35;46997.53;;;-142.92;100.00
56456;BME280;42354;53.218;6.564;2023-02-23T06:49:00;46993.44;;;-142.92;100.00
56456;BME280;42354;53.218;6.564;2023-02-23T06:51:26;47032.44;;;-142.92;100.00
56456;BME280;42354;53.218;6.564;2023-02-23T06:53:52;46997.53;;;-142.92;100.00
56456;BME280;42354;53.218;6.564;2023-02-23T06:56:18;47001.66;;;-142.92;100.00
56456;BME280;42354;53.218;6.564;2023-02-23T06:58:44;47001.66;;;-142.92;100.00
56456;BME280;42354;53.218;6.564;2023-02-23T07:01:10;47001.66;;;-142.92;100.00
56456;BME280;42354;53.218;6.564;2023-02-23T07:03:37;46983.19;;;-142.92;100.00
56456;BME280;42354;53.218;6.564;2023-02-23T07:06:02;47024.22;;;-142.92;100.00
56456;BME280;42354;53.218;6.564;2023-02-23T07:08:29;46989.34;;;-142.92;100.00
56456;BME280;42354;53.218;6.564;2023-02-23T07:10:54;47005.75;;;-142.92;100.00
56456;BME280;42354;53.218;6.564;2023-02-23T07:13:21;47007.81;;;-142.92;100.00
56456;BME280;42354;53.218;6.564;2023-02-23T07:15:47;47005.75;;;-142.92;100.00
56456;BME280;42354;53.218;6.564;2023-02-23T07:18:13;47003.69;;;-142.92;100.00
56456;BME280;42354;53.218;6.564;2023-02-23T07:20:38;47020.13;;;-142.92;100.00
56456;BME280;42354;53.218;6.564;2023-02-23T07:23:04;46995.50;;;-142.92;100.00
56456;BME280;42354;53.218;6.564;2023-02-23T07:25:29;47005.75;;;-142.92;100.00
56456;BME280;42354;53.218;6.564;2023-02-23T07:27:55;47020.13;;;-142.92;100.00
56456;BME280;42354;53.218;6.564;2023-02-23T07:30:23;47024.22;;;-142.92;100.00
56456;BME280;42354;53.218;6.564;2023-02-23T07:32:49;47009.84;;;-142.92;100.00
56456;BME280;42354;53.218;6.564;2023-02-23T07:35:17;46991.38;;;-142.92;99.47
56456;BME280;42354;53.218;6.564;2023-02-23T07:37:43;47005.75;;;-142.92;99.74
56456;BME280;42354;53.218;6.564;2023-02-23T07:40:09;46983.19;;;-142.92;99.77
56456;BME280;42354;53.218;6.564;2023-02-23T07:42:34;47016.00;;;-142.92;99.66
56456;BME280;42354;53.218;6.564;2023-02-23T07:45:00;47001.66;;;-142.92;99.43
56456;BME280;42354;53.218;6.564;2023-02-23T07:47:25;47034.47;;;-142.92;99.48
56456;BME280;42354;53.218;6.564;2023-02-23T07:49:56;47003.69;;;-142.92;99.79
56456;BME280;42354;53.218;6.564;2023-02-23T07:52:22;47032.44;;;-142.92;99.70
56456;BME280;42354;53.218;6.564;2023-02-23T07:54:47;46997.53;;;-142.92;99.37
56456;BME280;42354;53.218;6.564;2023-02-23T07:57:12;47016.00;;;-142.92;99.17
56456;BME280;42354;53.218;6.564;2023-02-23T07:59:39;47007.81;;;-142.92;98.88
56456;BME280;42354;53.218;6.564;2023-02-23T08:02:05;47005.75;;;-142.92;98.82
56456;BME280;42354;53.218;6.564;2023-02-23T08:04:31;47018.06;;;-142.92;98.98
56456;BME280;42354;53.218;6.564;2023-02-23T08:06:56;47001.66;;;-142.92;98.97
56456;BME280;42354;53.218;6.564;2023-02-23T08:09:22;47011.91;;;-142.92;99.28
56456;BME280;42354;53.218;6.564;2023-02-23T08:11:48;47009.84;;;-142.92;99.71
56456;BME280;42354;53.218;6.564;2023-02-23T08:14:13;46999.59;;;-142.92;100.00
56456;BME280;42354;53.218;6.564;2023-02-23T08:16:40;46995.50;;;-142.92;100.00
56456;BME280;42354;53.218;6.564;2023-02-23T08:19:05;47003.69;;;-142.92;99.92
56456;BME280;42354;53.218;6.564;2023-02-23T08:21:30;47018.06;;;-142.92;100.00
56456;BME280;42354;53.218;6.564;2023-02-23T08:23:57;47032.44;;;-142.92;100.00
56456;BME280;42354;53.218;6.564;2023-02-23T08:26:23;46991.38;;;-142.92;100.00
56456;BME280;42354;53.218;6.564;2023-02-23T08:28:50;47013.97;;;-142.92;100.00
56456;BME280;42354;53.218;6.564;2023-02-23T08:31:15;47005.75;;;-142.92;100.00
56456;BME280;42354;53.218;6.564;2023-02-23T08:33:43;47020.13;;;-142.92;100.00
56456;BME280;42354;53.218;6.564;2023-02-23T08:36:09;47016.00;;;-142.92;100.00
56456;BME280;42354;53.218;6.564;2023-02-23T08:38:34;47020.13;;;-142.92;100.00
56456;BME280;42354;53.218;6.564;2023-02-23T08:41:05;47018.06;;;-142.92;100.00
56456;BME280;42354;53.218;6.564;2023-02-23T08:43:31;47013.97;;;-142.92;100.00
56456;BME280;42354;53.218;6.564;2023-02-23T08:45:56;47040.63;;;-142.92;100.00
56456;BME280;42354;53.218;6.564;2023-02-23T08:48:22;47007.81;;;-142.92;100.00
56456;BME280;42354;53.218;6.564;2023-02-23T08:50:54;46993.44;;;-142.92;100.00
56456;BME280;42354;53.218;6.564;2023-02-23T08:53:20;47020.13;;;-142.92;100.00
56456;BME280;42354;53.218;6.564;2023-02-23T08:55:47;47011.91;;;-142.92;100.00
56456;BME280;42354;53.218;6.564;2023-02-23T08:58:12;47011.91;;;-142.92;100.00
56456;BME280;42354;53.218;6.564;2023-02-23T09:00:38;47011.91;;;-142.92;100.00
56456;BME280;42354;53.218;6.564;2023-02-23T09:03:05;47013.97;;;-142.92;100.00
56456;BME280;42354;53.218;6.564;2023-02-23T09:05:32;47016.00;;;-142.92;100.00
56456;BME280;42354;53.218;6.564;2023-02-23T09:08:00;47007.81;;;-142.92;100.00
56456;BME280;42354;53.218;6.564;2023-02-23T09:10:26;46999.59;;;-142.92;100.00
56456;BME280;42354;53.218;6.564;2023-02-23T09:12:53;47020.13;;;-142.92;100.00
56456;BME280;42354;53.218;6.564;2023-02-23T09:15:19;47016.00;;;-142.92;100.00
56456;BME280;42354;53.218;6.564;2023-02-23T09:17:46;47007.81;;;-142.92;100.00
56456;BME280;42354;53.218;6.564;2023-02-23T09:20:17;47026.28;;;-142.92;100.00
56456;BME280;42354;53.218;6.564;2023-02-23T09:22:43;47011.91;;;-142.92;100.00
56456;BME280;42354;53.218;6.564;2023-02-23T09:25:17;47005.75;;;-142.92;100.00
56456;BME280;42354;53.218;6.564;2023-02-23T09:27:47;47022.16;;;-142.92;100.00
56456;BME280;42354;53.218;6.564;2023-02-23T09:30:14;47016.00;;;-142.92;100.00
56456;BME280;42354;53.218;6.564;2023-02-23T09:32:48;46995.50;;;-142.92;100.00
56456;BME280;42354;53.218;6.564;2023-02-23T09:35:15;47007.81;;;-142.92;100.00
56456;BME280;42354;53.218;6.564;2023-02-23T09:37:50;47020.13;;;-142.92;100.00
56456;BME280;42354;53.218;6.564;2023-02-23T09:40:22;47018.06;;;-142.92;100.00
56456;BME280;42354;53.218;6.564;2023-02-23T09:48:38;47005.75;;;-142.92;99.27
56456;BME280;42354;53.218;6.564;2023-02-23T09:51:05;47016.00;;;-142.92;98.76
56456;BME280;42354;53.218;6.564;2023-02-23T09:53:39;47016.00;;;-142.92;99.44
56456;BME280;42354;53.218;6.564;2023-02-23T09:56:21;47007.81;;;-142.92;98.71
56456;BME280;42354;53.218;6.564;2023-02-23T09:58:48;47028.31;;;-142.92;99.58
56456;BME280;42354;53.218;6.564;2023-02-23T10:03:52;47007.81;;;-142.92;97.96
56456;BME280;42354;53.218;6.564;2023-02-23T10:06:20;47028.31;;;-142.92;98.13
56456;BME280;42354;53.218;6.564;2023-02-23T10:11:45;46999.59;;;-142.92;97.69
56456;BME280;42354;53.218;6.564;2023-02-23T10:14:35;47018.06;;;-142.92;97.56
56456;BME280;42354;53.218;6.564;2023-02-23T10:20:20;47007.81;;;-142.92;96.92
56456;BME280;42354;53.218;6.564;2023-02-23T10:22:47;47016.00;;;-142.92;97.02
56456;BME280;42354;53.218;6.564;2023-02-23T10:25:19;47028.31;;;-142.92;97.23
56456;BME280;42354;53.218;6.564;2023-02-23T10:27:48;47028.31;;;-142.92;96.61
56456;BME280;42354;53.218;6.564;2023-02-23T10:30:32;47016.00;;;-142.92;95.43
56456;BME280;42354;53.218;6.564;2023-02-23T10:35:29;47020.13;;;-142.92;96.45
56456;BME280;42354;53.218;6.564;2023-02-23T10:37:55;47007.81;;;-142.92;96.11
56456;BME280;42354;53.218;6.564;2023-02-23T10:40:25;47011.91;;;-142.92;94.72
56456;BME280;42354;53.218;6.564;2023-02-23T10:42:55;46989.34;;;-142.92;94.06
56456;BME280;42354;53.218;6.564;2023-02-23T10:45:23;47007.81;;;-142.92;93.89
56456;BME280;42354;53.218;6.564;2023-02-23T10:48:01;47018.06;;;-142.92;93.10
56456;BME280;42354;53.218;6.564;2023-02-23T10:50:29;47022.16;;;-142.92;92.65
56456;BME280;42354;53.218;6.564;2023-02-23T10:52:59;47020.13;;;-142.92;92.24
56456;BME280;42354;53.218;6.564;2023-02-23T10:55:30;46999.59;;;-142.92;92.43
56456;BME280;42354;53.218;6.564;2023-02-23T11:00:37;46999.59;;;-142.92;92.77
56456;BME280;42354;53.218;6.564;2023-02-23T11:03:16;47016.00;;;-142.92;91.27
56456;BME280;42354;53.218;6.564;2023-02-23T11:05:47;47042.69;;;-142.92;90.63
56456;BME280;42354;53.218;6.564;2023-02-23T11:10:41;47009.84;;;-142.92;90.03
56456;BME280;42354;53.218;6.564;2023-02-23T11:13:21;46995.50;;;-142.92;88.26
56456;BME280;42354;53.218;6.564;2023-02-23T11:15:47;47003.69;;;-142.92;87.58
56456;BME280;42354;53.218;6.564;2023-02-23T11:18:20;47011.91;;;-142.92;87.14
56456;BME280;42354;53.218;6.564;2023-02-23T11:20:47;46999.59;;;-142.92;87.35
56456;BME280;42354;53.218;6.564;2023-02-23T11:23:25;47028.31;;;-142.92;87.02
56456;BME280;42354;53.218;6.564;2023-02-23T11:26:05;47005.75;;;-142.92;87.52
56456;BME280;42354;53.218;6.564;2023-02-23T11:28:41;47030.38;;;-142.92;87.63
56456;BME280;42354;53.218;6.564;2023-02-23T11:31:17;47011.91;;;-142.92;87.51
56456;BME280;42354;53.218;6.564;2023-02-23T11:33:44;47038.59;;;-142.92;87.90
56456;BME280;42354;53.218;6.564;2023-02-23T11:41:42;47009.84;;;-142.92;88.51
56456;BME280;42354;53.218;6.564;2023-02-23T11:44:18;47016.00;;;-142.92;88.68
56456;BME280;42354;53.218;6.564;2023-02-23T11:46:44;47001.66;;;-142.92;89.37
56456;BME280;42354;53.218;6.564;2023-02-23T11:49:17;47024.22;;;-142.92;90.09
56456;BME280;42354;53.218;6.564;2023-02-23T11:51:49;47016.00;;;-142.92;90.35
56456;BME280;42354;53.218;6.564;2023-02-23T11:54:28;47028.31;;;-142.92;91.06
56456;BME280;42354;53.218;6.564;2023-02-23T11:56:54;46999.59;;;-142.92;91.66
56456;BME280;42354;53.218;6.564;2023-02-23T11:59:37;47003.69;;;-142.92;91.68
56456;BME280;42354;53.218;6.564;2023-02-23T12:07:39;47009.84;;;-142.92;93.45
56456;BME280;42354;53.218;6.564;2023-02-23T12:10:28;47016.00;;;-142.92;94.15
56456;BME280;42354;53.218;6.564;2023-02-23T12:15:57;47022.16;;;-142.92;94.98
56456;BME280;42354;53.218;6.564;2023-02-23T12:26:36;47020.13;;;-142.92;95.60
56456;BME280;42354;53.218;6.564;2023-02-23T12:29:17;47016.00;;;-142.92;95.71
56456;BME280;42354;53.218;6.564;2023-02-23T12:31:58;47020.13;;;-142.92;96.15
56456;BME280;42354;53.218;6.564;2023-02-23T12:34:55;47007.81;;;-142.92;96.48
56456;BME280;42354;53.218;6.564;2023-02-23T12:45:27;47028.31;;;-142.92;98.45
56456;BME280;42354;53.218;6.564;2023-02-23T12:48:27;47003.69;;;-142.92;98.24
56456;BME280;42354;53.218;6.564;2023-02-23T12:50:55;47007.81;;;-142.92;98.51
56456;BME280;42354;53.218;6.564;2023-02-23T12:53:28;47003.69;;;-142.92;98.32
56456;BME280;42354;53.218;6.564;2023-02-23T12:56:21;47020.13;;;-142.92;99.71
56456;BME280;42354;53.218;6.564;2023-02-23T13:05:34;47013.97;;;-142.92;100.00
56456;BME280;42354;53.218;6.564;2023-02-23T13:08:23;47007.81;;;-142.92;100.00
56456;BME280;42354;53.218;6.564;2023-02-23T13:16:51;46987.28;;;-142.92;100.00
56456;BME280;42354;53.218;6.564;2023-02-23T13:19:26;47011.91;;;-142.92;100.00
56456;BME280;42354;53.218;6.564;2023-02-23T13:24:38;47011.91;;;-142.92;100.00
56456;BME280;42354;53.218;6.564;2023-02-23T13:27:22;47016.00;;;-142.92;100.00
56456;BME280;42354;53.218;6.564;2023-02-23T13:29:51;47022.16;;;-142.92;100.00
56456;BME280;42354;53.218;6.564;2023-02-23T13:32:24;46999.59;;;-142.92;100.00
56456;BME280;42354;53.218;6.564;2023-02-23T13:34:59;46987.28;;;-142.92;100.00
56456;BME280;42354;53.218;6.564;2023-02-23T13:45:26;47005.75;;;-142.92;100.00
56456;BME280;42354;53.218;6.564;2023-02-23T13:51:05;47034.47;;;-142.92;100.00
56456;BME280;42354;53.218;6.564;2023-02-23T13:56:06;46991.38;;;-142.92;100.00
56456;BME280;42354;53.218;6.564;2023-02-23T13:58:33;47024.22;;;-142.92;100.00
56456;BME280;42354;53.218;6.564;2023-02-23T14:01:07;47009.84;;;-142.92;100.00
56456;BME280;42354;53.218;6.564;2023-02-23T14:03:41;46993.44;;;-142.92;100.00
56456;BME280;42354;53.218;6.564;2023-02-23T14:06:11;47016.00;;;-142.92;100.00
56456;BME280;42354;53.218;6.564;2023-02-23T14:08:38;46991.38;;;-142.92;100.00
56456;BME280;42354;53.218;6.564;2023-02-23T14:11:07;47018.06;;;-142.92;100.00
56456;BME280;42354;53.218;6.564;2023-02-23T14:13:38;47007.81;;;-142.92;100.00
56456;BME280;42354;53.218;6.564;2023-02-23T14:16:17;46991.38;;;-142.92;100.00
56456;BME280;42354;53.218;6.564;2023-02-23T14:18:53;47003.69;;;-142.92;100.00
56456;BME280;42354;53.218;6.564;2023-02-23T14:21:30;47003.69;;;-142.92;100.00
56456;BME280;42354;53.218;6.564;2023-02-23T14:24:12;47009.84;;;-142.92;100.00
56456;BME280;42354;53.218;6.564;2023-02-23T14:26:43;47007.81;;;-142.92;100.00
56456;BME280;42354;53.218;6.564;2023-02-23T14:32:01;46985.22;;;-142.92;100.00
56456;BME280;42354;53.218;6.564;2023-02-23T14:37:17;47018.06;;;-142.92;99.84
56456;BME280;42354;53.218;6.564;2023-02-23T14:39:48;47011.91;;;-142.92;99.52
56456;BME280;42354;53.218;6.564;2023-02-23T14:42:20;47030.38;;;-142.92;98.01
56456;BME280;42354;53.218;6.564;2023-02-23T14:44:46;47001.66;;;-142.92;97.92
56456;BME280;42354;53.218;6.564;2023-02-23T14:47:19;47020.13;;;-142.92;97.47
56456;BME280;42354;53.218;6.564;2023-02-23T14:49:52;47007.81;;;-142.92;96.65
56456;BME280;42354;53.218;6.564;2023-02-23T14:52:24;47013.97;;;-142.92;95.43